sensor_id;sensor_type;location;lat;lon;timestamp;P1;durP1;ratioP1;P2;durP2;ratioP2
3817;SDS011;1924;48.078;11.516;2023-07-29T00:00:38;36.23;;;0.80;;
3817;SDS011;1924;48.078;11.516;2023-07-29T00:03:08;36.27;;;0.80;;
3817;SDS011;1924;48.078;11.516;2023-07-29T00:05:35;36.33;;;0.80;;
3817;SDS011;1924;48.078;11.516;2023-07-29T00:08:02;36.23;;;0.80;;
3817;SDS011;1924;48.078;11.516;2023-07-29T00:10:32;36.17;;;0.80;;
3817;SDS011;1924;48.078;11.516;2023-07-29T00:13:03;36.33;;;0.80;;
3817;SDS011;1924;48.078;11.516;2023-07-29T00:15:31;36.23;;;0.80;;
3817;SDS011;1924;48.078;11.516;2023-07-29T00:17:58;36.20;;;0.80;;
3817;SDS011;1924;48.078;11.516;2023-07-29T00:20:25;36.23;;;0.80;;
3817;SDS011;1924;48.078;11.516;2023-07-29T00:22:52;36.47;;;0.80;;
3817;SDS011;1924;48.078;11.516;2023-07-29T00:25:19;36.40;;;0.80;;
3817;SDS011;1924;48.078;11.516;2023-07-29T00:27:47;36.17;;;0.80;;
3817;SDS011;1924;48.078;11.516;2023-07-29T00:30:16;36.40;;;0.80;;
3817;SDS011;1924;48.078;11.516;2023-07-29T00:32:43;36.27;;;0.80;;
3817;SDS011;1924;48.078;11.516;2023-07-29T00:35:10;36.40;;;0.80;;
3817;SDS011;1924;48.078;11.516;2023-07-29T00:37:36;36.10;;;0.80;;
3817;SDS011;1924;48.078;11.516;2023-07-29T00:40:04;36.37;;;0.80;;
3817;SDS011;1924;48.078;11.516;2023-07-29T04:00:21;36.43;;;0.80;;
3817;SDS011;1924;48.078;11.516;2023-07-29T04:02:48;36.37;;;0.80;;
3817;SDS011;1924;48.078;11.516;2023-07-29T04:05:15;36.43;;;0.80;;
3817;SDS011;1924;48.078;11.516;2023-07-29T04:07:42;36.50;;;0.80;;
3817;SDS011;1924;48.078;11.516;2023-07-29T04:10:09;36.27;;;0.80;;
3817;SDS011;1924;48.078;11.516;2023-07-29T04:12:36;36.53;;;0.80;;
3817;SDS011;1924;48.078;11.516;2023-07-29T04:15:04;36.37;;;0.80;;
3817;SDS011;1924;48.078;11.516;2023-07-29T04:17:33;36.30;;;0.80;;
3817;SDS011;1924;48.078;11.516;2023-07-29T04:20:00;35.90;;;0.80;;
3817;SDS011;1924;48.078;11.516;2023-07-29T04:22:27;36.07;;;0.80;;
3817;SDS011;1924;48.078;11.516;2023-07-29T04:24:53;36.37;;;0.80;;
3817;SDS011;1924;48.078;11.516;2023-07-29T04:27:21;36.40;;;0.80;;
3817;SDS011;1924;48.078;11.516;2023-07-29T04:29:48;36.37;;;0.80;;
3817;SDS011;1924;48.078;11.516;2023-07-29T04:32:15;36.40;;;0.80;;
3817;SDS011;1924;48.078;11.516;2023-07-29T04:34:43;36.27;;;0.80;;
3817;SDS011;1924;48.078;11.516;2023-07-29T04:37:10;36.50;;;0.80;;
3817;SDS011;1924;48.078;11.516;2023-07-29T04:39:37;36.47;;;0.80;;
3817;SDS011;1924;48.078;11.516;2023-07-29T04:42:04;36.40;;;0.80;;
3817;SDS011;1924;48.078;11.516;2023-07-29T04:44:31;36.33;;;0.80;;
3817;SDS011;1924;48.078;11.516;2023-07-29T04:46:58;36.40;;;0.80;;
3817;SDS011;1924;48.078;11.516;2023-07-29T04:49:27;36.37;;;0.80;;
3817;SDS011;1924;48.078;11.516;2023-07-29T04:51:55;35.93;;;0.80;;
3817;SDS011;1924;48.078;11.516;2023-07-29T04:54:22;36.17;;;0.80;;
3817;SDS011;1924;48.078;11.516;2023-07-29T04:56:49;36.20;;;0.80;;
3817;SDS011;1924;48.078;11.516;2023-07-29T04:59:15;36.27;;;0.80;;
3817;SDS011;1924;48.078;11.516;2023-07-29T05:01:42;36.20;;;0.80;;
3817;SDS011;1924;48.078;11.516;2023-07-29T05:04:09;36.10;;;0.80;;
3817;SDS011;1924;48.078;11.516;2023-07-29T05:06:36;36.03;;;0.80;;
3817;SDS011;1924;48.078;11.516;2023-07-29T05:09:13;35.83;;;0.80;;
3817;SDS011;1924;48.078;11.516;2023-07-29T05:11:41;36.20;;;0.80;;
3817;SDS011;1924;48.078;11.516;2023-07-29T05:14:08;36.20;;;0.80;;
3817;SDS011;1924;48.078;11.516;2023-07-29T05:16:36;35.87;;;0.80;;
3817;SDS011;1924;48.078;11.516;2023-07-29T05:19:03;36.17;;;0.80;;
3817;SDS011;1924;48.078;11.516;2023-07-29T05:21:29;35.83;;;0.80;;
3817;SDS011;1924;48.078;11.516;2023-07-29T05:23:56;35.87;;;0.80;;
3817;SDS011;1924;48.078;11.516;2023-07-29T05:26:24;35.77;;;0.80;;
3817;SDS011;1924;48.078;11.516;2023-07-29T05:28:51;35.87;;;0.80;;
3817;SDS011;1924;48.078;11.516;2023-07-29T05:31:18;35.83;;;0.80;;
3817;SDS011;1924;48.078;11.516;2023-07-29T05:33:46;36.13;;;0.80;;
3817;SDS011;1924;48.078;11.516;2023-07-29T05:36:13;35.83;;;0.80;;
3817;SDS011;1924;48.078;11.516;2023-07-29T05:38:40;36.00;;;0.80;;
3817;SDS011;1924;48.078;11.516;2023-07-29T05:41:07;35.63;;;0.80;;
3817;SDS011;1924;48.078;11.516;2023-07-29T05:43:35;35.87;;;0.80;;
3817;SDS011;1924;48.078;11.516;2023-07-29T05:46:02;35.87;;;0.80;;
3817;SDS011;1924;48.078;11.516;2023-07-29T05:48:28;36.00;;;0.80;;
3817;SDS011;1924;48.078;11.516;2023-07-29T05:50:55;35.63;;;0.80;;
3817;SDS011;1924;48.078;11.516;2023-07-29T05:53:22;35.67;;;0.80;;
3817;SDS011;1924;48.078;11.516;2023-07-29T05:55:48;35.80;;;0.80;;
3817;SDS011;1924;48.078;11.516;2023-07-29T05:58:15;36.00;;;0.80;;
3817;SDS011;1924;48.078;11.516;2023-07-29T06:00:43;35.83;;;0.80;;
3817;SDS011;1924;48.078;11.516;2023-07-29T06:03:11;35.90;;;0.80;;
3817;SDS011;1924;48.078;11.516;2023-07-29T06:05:38;35.90;;;0.80;;
3817;SDS011;1924;48.078;11.516;2023-07-29T06:08:05;35.77;;;0.80;;
3817;SDS011;1924;48.078;11.516;2023-07-29T06:10:33;35.77;;;0.80;;
3817;SDS011;1924;48.078;11.516;2023-07-29T06:13:00;35.90;;;0.80;;
3817;SDS011;1924;48.078;11.516;2023-07-29T06:15:27;35.67;;;0.80;;
3817;SDS011;1924;48.078;11.516;2023-07-29T06:17:57;36.00;;;0.80;;
3817;SDS011;1924;48.078;11.516;2023-07-29T06:20:24;35.97;;;0.80;;
3817;SDS011;1924;48.078;11.516;2023-07-29T06:22:52;35.97;;;0.80;;
3817;SDS011;1924;48.078;11.516;2023-07-29T06:25:19;36.13;;;0.80;;
3817;SDS011;1924;48.078;11.516;2023-07-29T06:27:46;36.30;;;0.80;;
3817;SDS011;1924;48.078;11.516;2023-07-29T06:30:13;36.27;;;0.80;;
3817;SDS011;1924;48.078;11.516;2023-07-29T06:32:39;36.10;;;0.80;;
3817;SDS011;1924;48.078;11.516;2023-07-29T06:35:08;35.97;;;0.80;;
3817;SDS011;1924;48.078;11.516;2023-07-29T06:37:34;35.90;;;0.80;;
3817;SDS011;1924;48.078;11.516;2023-07-29T06:40:01;36.00;;;0.80;;
3817;SDS011;1924;48.078;11.516;2023-07-29T06:42:28;36.13;;;0.80;;
3817;SDS011;1924;48.078;11.516;2023-07-29T06:44:55;36.27;;;0.80;;
3817;SDS011;1924;48.078;11.516;2023-07-29T06:47:22;36.30;;;0.80;;
3817;SDS011;1924;48.078;11.516;2023-07-29T06:49:48;35.97;;;0.80;;
3817;SDS011;1924;48.078;11.516;2023-07-29T06:52:18;36.27;;;0.80;;
3817;SDS011;1924;48.078;11.516;2023-07-29T06:54:45;36.30;;;0.80;;
3817;SDS011;1924;48.078;11.516;2023-07-29T06:57:11;36.43;;;0.80;;
3817;SDS011;1924;48.078;11.516;2023-07-29T06:59:38;36.50;;;0.80;;
3817;SDS011;1924;48.078;11.516;2023-07-29T07:02:06;36.50;;;0.80;;
3817;SDS011;1924;48.078;11.516;2023-07-29T07:04:33;36.40;;;0.80;;
3817;SDS011;1924;48.078;11.516;2023-07-29T07:07:00;36.43;;;0.80;;
3817;SDS011;1924;48.078;11.516;2023-07-29T07:09:30;36.57;;;0.80;;
3817;SDS011;1924;48.078;11.516;2023-07-29T07:11:57;36.70;;;0.80;;
3817;SDS011;1924;48.078;11.516;2023-07-29T07:14:24;36.73;;;0.80;;
3817;SDS011;1924;48.078;11.516;2023-07-29T07:16:51;36.57;;;0.80;;
3817;SDS011;1924;48.078;11.516;2023-07-29T07:19:17;36.90;;;0.80;;
3817;SDS011;1924;48.078;11.516;2023-07-29T07:21:44;36.77;;;0.80;;
3817;SDS011;1924;48.078;11.516;2023-07-29T07:24:11;36.73;;;0.80;;
3817;SDS011;1924;48.078;11.516;2023-07-29T07:26:39;36.87;;;0.80;;
3817;SDS011;1924;48.078;11.516;2023-07-29T07:29:06;36.97;;;0.80;;
3817;SDS011;1924;48.078;11.516;2023-07-29T07:31:33;36.83;;;0.80;;
3817;SDS011;1924;48.078;11.516;2023-07-29T07:34:00;36.87;;;0.80;;
3817;SDS011;1924;48.078;11.516;2023-07-29T07:36:28;36.77;;;0.80;;
3817;SDS011;1924;48.078;11.516;2023-07-29T07:38:55;36.83;;;0.80;;
3817;SDS011;1924;48.078;11.516;2023-07-29T07:41:22;36.93;;;0.80;;
3817;SDS011;1924;48.078;11.516;2023-07-29T07:43:50;36.97;;;0.80;;
3817;SDS011;1924;48.078;11.516;2023-07-29T07:46:17;37.10;;;0.80;;
3817;SDS011;1924;48.078;11.516;2023-07-29T07:48:43;36.93;;;0.80;;
3817;SDS011;1924;48.078;11.516;2023-07-29T07:51:10;36.90;;;0.80;;
3817;SDS011;1924;48.078;11.516;2023-07-29T07:53:38;36.97;;;0.80;;
3817;SDS011;1924;48.078;11.516;2023-07-29T07:56:05;36.93;;;0.80;;
3817;SDS011;1924;48.078;11.516;2023-07-29T07:58:32;37.13;;;0.80;;
3817;SDS011;1924;48.078;11.516;2023-07-29T08:01:02;37.17;;;0.80;;
3817;SDS011;1924;48.078;11.516;2023-07-29T08:03:29;37.37;;;0.80;;
3817;SDS011;1924;48.078;11.516;2023-07-29T08:05:56;37.27;;;0.80;;
3817;SDS011;1924;48.078;11.516;2023-07-29T08:08:23;37.07;;;0.80;;
3817;SDS011;1924;48.078;11.516;2023-07-29T08:10:49;37.37;;;0.80;;
3817;SDS011;1924;48.078;11.516;2023-07-29T08:13:16;37.33;;;0.80;;
3817;SDS011;1924;48.078;11.516;2023-07-29T08:15:45;37.27;;;0.80;;
3817;SDS011;1924;48.078;11.516;2023-07-29T08:18:14;37.33;;;0.80;;
3817;SDS011;1924;48.078;11.516;2023-07-29T08:20:41;37.57;;;0.80;;
3817;SDS011;1924;48.078;11.516;2023-07-29T08:23:17;37.37;;;0.80;;
3817;SDS011;1924;48.078;11.516;2023-07-29T08:25:43;37.43;;;0.80;;
3817;SDS011;1924;48.078;11.516;2023-07-29T08:28:10;37.47;;;0.80;;
3817;SDS011;1924;48.078;11.516;2023-07-29T08:30:37;37.70;;;0.80;;
3817;SDS011;1924;48.078;11.516;2023-07-29T08:33:03;37.73;;;0.80;;
3817;SDS011;1924;48.078;11.516;2023-07-29T08:35:31;37.73;;;0.80;;
3817;SDS011;1924;48.078;11.516;2023-07-29T08:37:58;37.63;;;0.80;;
3817;SDS011;1924;48.078;11.516;2023-07-29T08:40:27;37.73;;;0.80;;
3817;SDS011;1924;48.078;11.516;2023-07-29T08:42:55;37.67;;;0.80;;
3817;SDS011;1924;48.078;11.516;2023-07-29T08:45:24;37.60;;;0.80;;
3817;SDS011;1924;48.078;11.516;2023-07-29T08:47:54;37.77;;;0.80;;
3817;SDS011;1924;48.078;11.516;2023-07-29T08:50:24;37.53;;;0.80;;
3817;SDS011;1924;48.078;11.516;2023-07-29T08:52:53;37.87;;;0.80;;
3817;SDS011;1924;48.078;11.516;2023-07-29T08:55:20;37.57;;;0.80;;
3817;SDS011;1924;48.078;11.516;2023-07-29T08:57:47;37.87;;;0.80;;
3817;SDS011;1924;48.078;11.516;2023-07-29T09:00:14;37.57;;;0.80;;
3817;SDS011;1924;48.078;11.516;2023-07-29T09:02:41;37.63;;;0.80;;
3817;SDS011;1924;48.078;11.516;2023-07-29T09:05:08;37.77;;;0.80;;
3817;SDS011;1924;48.078;11.516;2023-07-29T09:07:35;37.50;;;0.80;;
3817;SDS011;1924;48.078;11.516;2023-07-29T09:10:05;37.67;;;0.80;;
3817;SDS011;1924;48.078;11.516;2023-07-29T09:12:34;37.57;;;0.80;;
3817;SDS011;1924;48.078;11.516;2023-07-29T09:15:01;37.53;;;0.80;;
3817;SDS011;1924;48.078;11.516;2023-07-29T09:17:30;37.60;;;0.80;;
3817;SDS011;1924;48.078;11.516;2023-07-29T09:19:57;37.40;;;0.80;;
3817;SDS011;1924;48.078;11.516;2023-07-29T09:22:26;37.63;;;0.80;;
3817;SDS011;1924;48.078;11.516;2023-07-29T09:24:53;37.63;;;0.80;;
3817;SDS011;1924;48.078;11.516;2023-07-29T09:27:24;37.80;;;0.80;;
3817;SDS011;1924;48.078;11.516;2023-07-29T09:29:55;37.87;;;0.80;;
3817;SDS011;1924;48.078;11.516;2023-07-29T09:32:22;37.83;;;0.80;;
3817;SDS011;1924;48.078;11.516;2023-07-29T09:34:50;37.97;;;0.80;;
3817;SDS011;1924;48.078;11.516;2023-07-29T09:37:17;37.67;;;0.80;;
3817;SDS011;1924;48.078;11.516;2023-07-29T09:39:46;38.00;;;0.80;;
3817;SDS011;1924;48.078;11.516;2023-07-29T09:42:16;37.83;;;0.80;;
3817;SDS011;1924;48.078;11.516;2023-07-29T09:47:22;37.87;;;0.80;;
3817;SDS011;1924;48.078;11.516;2023-07-29T09:49:50;37.67;;;0.80;;
3817;SDS011;1924;48.078;11.516;2023-07-29T09:52:18;37.77;;;0.80;;
3817;SDS011;1924;48.078;11.516;2023-07-29T09:54:46;37.77;;;0.80;;
3817;SDS011;1924;48.078;11.516;2023-07-29T09:57:13;37.63;;;0.80;;
3817;SDS011;1924;48.078;11.516;2023-07-29T10:02:13;37.73;;;0.80;;
3817;SDS011;1924;48.078;11.516;2023-07-29T10:04:43;37.73;;;0.80;;
3817;SDS011;1924;48.078;11.516;2023-07-29T10:07:11;37.67;;;0.80;;
3817;SDS011;1924;48.078;11.516;2023-07-29T10:09:39;37.43;;;0.80;;
3817;SDS011;1924;48.078;11.516;2023-07-29T10:12:06;37.53;;;0.80;;
3817;SDS011;1924;48.078;11.516;2023-07-29T10:14:33;37.37;;;0.80;;
3817;SDS011;1924;48.078;11.516;2023-07-29T10:17:01;37.30;;;0.80;;
3817;SDS011;1924;48.078;11.516;2023-07-29T10:19:30;37.23;;;0.80;;
3817;SDS011;1924;48.078;11.516;2023-07-29T10:22:00;36.93;;;0.80;;
3817;SDS011;1924;48.078;11.516;2023-07-29T10:24:30;37.17;;;0.80;;
3817;SDS011;1924;48.078;11.516;2023-07-29T10:26:58;37.17;;;0.80;;
3817;SDS011;1924;48.078;11.516;2023-07-29T10:29:28;37.03;;;0.80;;
3817;SDS011;1924;48.078;11.516;2023-07-29T10:31:57;37.17;;;0.80;;
3817;SDS011;1924;48.078;11.516;2023-07-29T10:34:27;37.07;;;0.80;;
3817;SDS011;1924;48.078;11.516;2023-07-29T10:36:55;36.80;;;0.80;;
3817;SDS011;1924;48.078;11.516;2023-07-29T10:39:26;36.73;;;0.80;;
3817;SDS011;1924;48.078;11.516;2023-07-29T10:41:56;36.67;;;0.80;;
3817;SDS011;1924;48.078;11.516;2023-07-29T10:47:17;36.57;;;0.80;;
3817;SDS011;1924;48.078;11.516;2023-07-29T10:49:49;36.67;;;0.80;;
3817;SDS011;1924;48.078;11.516;2023-07-29T10:52:27;36.47;;;0.80;;
3817;SDS011;1924;48.078;11.516;2023-07-29T10:55:22;36.70;;;0.80;;
3817;SDS011;1924;48.078;11.516;2023-07-29T10:58:04;36.47;;;0.80;;
3817;SDS011;1924;48.078;11.516;2023-07-29T11:00:32;36.40;;;0.80;;
3817;SDS011;1924;48.078;11.516;2023-07-29T11:02:59;36.17;;;0.80;;
3817;SDS011;1924;48.078;11.516;2023-07-29T11:05:27;36.33;;;0.80;;
3817;SDS011;1924;48.078;11.516;2023-07-29T11:08:18;36.13;;;0.80;;
3817;SDS011;1924;48.078;11.516;2023-07-29T11:11:04;36.27;;;0.80;;
3817;SDS011;1924;48.078;11.516;2023-07-29T11:13:32;35.97;;;0.80;;
3817;SDS011;1924;48.078;11.516;2023-07-29T11:16:00;35.87;;;0.80;;
3817;SDS011;1924;48.078;11.516;2023-07-29T11:18:28;36.03;;;0.80;;
3817;SDS011;1924;48.078;11.516;2023-07-29T11:20:56;35.93;;;0.80;;
3817;SDS011;1924;48.078;11.516;2023-07-29T11:23:27;35.97;;;0.80;;
3817;SDS011;1924;48.078;11.516;2023-07-29T11:25:56;36.07;;;0.80;;
3817;SDS011;1924;48.078;11.516;2023-07-29T11:28:26;35.87;;;0.80;;
3817;SDS011;1924;48.078;11.516;2023-07-29T11:30:53;35.67;;;0.80;;
3817;SDS011;1924;48.078;11.516;2023-07-29T11:33:21;35.37;;;0.80;;
3817;SDS011;1924;48.078;11.516;2023-07-29T11:35:49;35.47;;;0.80;;
3817;SDS011;1924;48.078;11.516;2023-07-29T11:38:18;35.17;;;0.80;;
3817;SDS011;1924;48.078;11.516;2023-07-29T11:40:55;35.23;;;0.80;;
3817;SDS011;1924;48.078;11.516;2023-07-29T11:43:24;35.17;;;0.80;;
3817;SDS011;1924;48.078;11.516;2023-07-29T11:45:53;35.17;;;0.80;;
3817;SDS011;1924;48.078;11.516;2023-07-29T11:48:26;34.87;;;0.80;;
3817;SDS011;1924;48.078;11.516;2023-07-29T11:50:53;35.17;;;0.80;;
3817;SDS011;1924;48.078;11.516;2023-07-29T11:53:20;35.33;;;0.80;;
3817;SDS011;1924;48.078;11.516;2023-07-29T11:55:49;35.17;;;0.80;;
3817;SDS011;1924;48.078;11.516;2023-07-29T11:58:17;35.17;;;0.80;;
3817;SDS011;1924;48.078;11.516;2023-07-29T12:00:46;34.97;;;0.80;;
3817;SDS011;1924;48.078;11.516;2023-07-29T12:03:14;35.23;;;0.80;;
3817;SDS011;1924;48.078;11.516;2023-07-29T12:05:42;35.30;;;0.80;;
3817;SDS011;1924;48.078;11.516;2023-07-29T12:08:10;35.50;;;0.80;;
3817;SDS011;1924;48.078;11.516;2023-07-29T12:10:37;35.53;;;0.80;;
3817;SDS011;1924;48.078;11.516;2023-07-29T12:13:04;35.37;;;0.80;;
3817;SDS011;1924;48.078;11.516;2023-07-29T12:15:33;35.33;;;0.80;;
3817;SDS011;1924;48.078;11.516;2023-07-29T12:18:03;35.23;;;0.80;;
3817;SDS011;1924;48.078;11.516;2023-07-29T12:20:31;35.30;;;0.80;;
3817;SDS011;1924;48.078;11.516;2023-07-29T12:22:59;35.27;;;0.80;;
3817;SDS011;1924;48.078;11.516;2023-07-29T12:25:28;35.40;;;0.80;;
3817;SDS011;1924;48.078;11.516;2023-07-29T12:27:55;35.27;;;0.80;;
3817;SDS011;1924;48.078;11.516;2023-07-29T12:30:22;35.17;;;0.80;;
3817;SDS011;1924;48.078;11.516;2023-07-29T12:32:49;34.97;;;0.80;;
3817;SDS011;1924;48.078;11.516;2023-07-29T12:35:16;35.20;;;0.80;;
3817;SDS011;1924;48.078;11.516;2023-07-29T12:37:45;35.37;;;0.80;;
3817;SDS011;1924;48.078;11.516;2023-07-29T12:40:21;35.13;;;0.80;;
3817;SDS011;1924;48.078;11.516;2023-07-29T12:42:49;35.37;;;0.80;;
3817;SDS011;1924;48.078;11.516;2023-07-29T12:45:16;35.37;;;0.80;;
3817;SDS011;1924;48.078;11.516;2023-07-29T12:47:44;35.30;;;0.80;;
3817;SDS011;1924;48.078;11.516;2023-07-29T12:50:11;35.13;;;0.80;;
3817;SDS011;1924;48.078;11.516;2023-07-29T12:52:39;35.23;;;0.80;;
3817;SDS011;1924;48.078;11.516;2023-07-29T12:55:07;35.13;;;0.80;;
3817;SDS011;1924;48.078;11.516;2023-07-29T12:57:38;35.03;;;0.80;;
3817;SDS011;1924;48.078;11.516;2023-07-29T13:00:06;35.27;;;0.80;;
3817;SDS011;1924;48.078;11.516;2023-07-29T13:02:34;35.37;;;0.80;;
3817;SDS011;1924;48.078;11.516;2023-07-29T13:05:00;35.47;;;0.80;;
3817;SDS011;1924;48.078;11.516;2023-07-29T13:07:27;35.50;;;0.80;;
3817;SDS011;1924;48.078;11.516;2023-07-29T13:09:54;35.77;;;0.80;;
3817;SDS011;1924;48.078;11.516;2023-07-29T13:12:22;35.53;;;0.80;;
3817;SDS011;1924;48.078;11.516;2023-07-29T13:14:49;35.63;;;0.80;;
3817;SDS011;1924;48.078;11.516;2023-07-29T13:17:18;35.50;;;0.80;;
3817;SDS011;1924;48.078;11.516;2023-07-29T13:19:45;35.67;;;0.80;;
3817;SDS011;1924;48.078;11.516;2023-07-29T13:22:13;35.50;;;0.80;;
3817;SDS011;1924;48.078;11.516;2023-07-29T13:24:40;35.87;;;0.80;;
3817;SDS011;1924;48.078;11.516;2023-07-29T13:27:07;35.63;;;0.80;;
3817;SDS011;1924;48.078;11.516;2023-07-29T13:29:36;35.60;;;0.80;;
3817;SDS011;1924;48.078;11.516;2023-07-29T13:32:03;35.80;;;0.80;;
3817;SDS011;1924;48.078;11.516;2023-07-29T13:34:31;35.60;;;0.80;;
3817;SDS011;1924;48.078;11.516;2023-07-29T13:36:59;35.57;;;0.80;;
3817;SDS011;1924;48.078;11.516;2023-07-29T13:39:27;35.47;;;0.80;;
3817;SDS011;1924;48.078;11.516;2023-07-29T13:41:54;35.67;;;0.80;;
3817;SDS011;1924;48.078;11.516;2023-07-29T13:44:23;35.70;;;0.80;;
3817;SDS011;1924;48.078;11.516;2023-07-29T13:46:51;35.70;;;0.80;;
3817;SDS011;1924;48.078;11.516;2023-07-29T13:49:20;35.47;;;0.80;;
3817;SDS011;1924;48.078;11.516;2023-07-29T13:51:46;35.43;;;0.80;;
3817;SDS011;1924;48.078;11.516;2023-07-29T13:54:13;35.37;;;0.80;;
3817;SDS011;1924;48.078;11.516;2023-07-29T13:56:40;35.80;;;0.80;;
3817;SDS011;1924;48.078;11.516;2023-07-29T13:59:07;35.50;;;0.80;;
3817;SDS011;1924;48.078;11.516;2023-07-29T14:01:33;35.90;;;0.80;;
3817;SDS011;1924;48.078;11.516;2023-07-29T14:04:01;35.70;;;0.80;;
3817;SDS011;1924;48.078;11.516;2023-07-29T14:06:29;35.67;;;0.80;;
3817;SDS011;1924;48.078;11.516;2023-07-29T14:08:56;35.80;;;0.80;;
3817;SDS011;1924;48.078;11.516;2023-07-29T14:11:22;35.77;;;0.80;;
3817;SDS011;1924;48.078;11.516;2023-07-29T14:13:50;35.67;;;0.80;;
3817;SDS011;1924;48.078;11.516;2023-07-29T14:16:17;35.87;;;0.80;;
3817;SDS011;1924;48.078;11.516;2023-07-29T14:18:47;35.83;;;0.80;;
3817;SDS011;1924;48.078;11.516;2023-07-29T14:21:15;35.93;;;0.80;;
3817;SDS011;1924;48.078;11.516;2023-07-29T14:23:43;36.13;;;0.80;;
3817;SDS011;1924;48.078;11.516;2023-07-29T14:26:12;36.20;;;0.80;;
3817;SDS011;1924;48.078;11.516;2023-07-29T14:28:39;36.17;;;0.80;;
3817;SDS011;1924;48.078;11.516;2023-07-29T14:31:07;36.40;;;0.80;;
3817;SDS011;1924;48.078;11.516;2023-07-29T14:33:33;36.17;;;0.80;;
3817;SDS011;1924;48.078;11.516;2023-07-29T14:36:00;36.17;;;0.80;;
3817;SDS011;1924;48.078;11.516;2023-07-29T14:38:29;36.20;;;0.80;;
3817;SDS011;1924;48.078;11.516;2023-07-29T14:40:56;36.07;;;0.80;;
3817;SDS011;1924;48.078;11.516;2023-07-29T14:43:23;36.17;;;0.80;;
3817;SDS011;1924;48.078;11.516;2023-07-29T14:45:50;36.07;;;0.80;;
3817;SDS011;1924;48.078;11.516;2023-07-29T14:48:17;36.30;;;0.80;;
3817;SDS011;1924;48.078;11.516;2023-07-29T14:50:44;36.20;;;0.80;;
3817;SDS011;1924;48.078;11.516;2023-07-29T14:53:10;36.40;;;0.80;;
3817;SDS011;1924;48.078;11.516;2023-07-29T14:55:39;36.23;;;0.80;;
3817;SDS011;1924;48.078;11.516;2023-07-29T14:58:09;36.20;;;0.80;;
3817;SDS011;1924;48.078;11.516;2023-07-29T15:00:36;36.23;;;0.80;;
3817;SDS011;1924;48.078;11.516;2023-07-29T15:03:03;36.10;;;0.80;;
3817;SDS011;1924;48.078;11.516;2023-07-29T15:05:31;36.23;;;0.80;;
3817;SDS011;1924;48.078;11.516;2023-07-29T15:07:57;35.93;;;0.80;;
3817;SDS011;1924;48.078;11.516;2023-07-29T15:10:24;36.27;;;0.80;;
3817;SDS011;1924;48.078;11.516;2023-07-29T15:12:55;36.17;;;0.80;;
3817;SDS011;1924;48.078;11.516;2023-07-29T15:15:22;36.03;;;0.80;;
3817;SDS011;1924;48.078;11.516;2023-07-29T15:17:49;36.33;;;0.80;;
3817;SDS011;1924;48.078;11.516;2023-07-29T15:20:15;36.20;;;0.80;;
3817;SDS011;1924;48.078;11.516;2023-07-29T15:22:42;36.27;;;0.80;;
3817;SDS011;1924;48.078;11.516;2023-07-29T15:25:09;36.13;;;0.80;;
3817;SDS011;1924;48.078;11.516;2023-07-29T15:27:36;36.40;;;0.80;;
3817;SDS011;1924;48.078;11.516;2023-07-29T15:30:05;36.27;;;0.80;;
3817;SDS011;1924;48.078;11.516;2023-07-29T15:32:34;36.50;;;0.80;;
3817;SDS011;1924;48.078;11.516;2023-07-29T15:35:01;36.40;;;0.80;;
3817;SDS011;1924;48.078;11.516;2023-07-29T15:37:28;36.60;;;0.80;;
3817;SDS011;1924;48.078;11.516;2023-07-29T15:39:54;36.47;;;0.80;;
3817;SDS011;1924;48.078;11.516;2023-07-29T15:42:21;36.50;;;0.80;;
3817;SDS011;1924;48.078;11.516;2023-07-29T15:44:48;36.53;;;0.80;;
3817;SDS011;1924;48.078;11.516;2023-07-29T15:47:16;36.23;;;0.80;;
3817;SDS011;1924;48.078;11.516;2023-07-29T15:49:43;36.60;;;0.80;;
3817;SDS011;1924;48.078;11.516;2023-07-29T15:52:10;36.53;;;0.80;;
3817;SDS011;1924;48.078;11.516;2023-07-29T15:54:39;36.47;;;0.80;;
3817;SDS011;1924;48.078;11.516;2023-07-29T15:57:06;36.47;;;0.80;;
3817;SDS011;1924;48.078;11.516;2023-07-29T15:59:33;36.37;;;0.80;;
3817;SDS011;1924;48.078;11.516;2023-07-29T16:01:59;36.37;;;0.80;;
3817;SDS011;1924;48.078;11.516;2023-07-29T16:04:27;36.60;;;0.80;;
3817;SDS011;1924;48.078;11.516;2023-07-29T16:06:54;36.37;;;0.80;;
3817;SDS011;1924;48.078;11.516;2023-07-29T16:09:21;36.57;;;0.80;;
3817;SDS011;1924;48.078;11.516;2023-07-29T16:11:48;36.47;;;0.80;;
3817;SDS011;1924;48.078;11.516;2023-07-29T16:14:14;36.60;;;0.80;;
3817;SDS011;1924;48.078;11.516;2023-07-29T16:16:41;36.63;;;0.80;;
3817;SDS011;1924;48.078;11.516;2023-07-29T16:19:09;36.73;;;0.80;;
3817;SDS011;1924;48.078;11.516;2023-07-29T16:21:37;36.77;;;0.80;;
3817;SDS011;1924;48.078;11.516;2023-07-29T16:24:04;36.77;;;0.80;;
3817;SDS011;1924;48.078;11.516;2023-07-29T16:26:30;36.87;;;0.80;;
3817;SDS011;1924;48.078;11.516;2023-07-29T16:28:57;36.93;;;0.80;;
3817;SDS011;1924;48.078;11.516;2023-07-29T16:31:29;36.97;;;0.80;;
3817;SDS011;1924;48.078;11.516;2023-07-29T16:33:55;36.80;;;0.80;;
3817;SDS011;1924;48.078;11.516;2023-07-29T16:36:22;36.67;;;0.80;;
3817;SDS011;1924;48.078;11.516;2023-07-29T16:38:51;36.80;;;0.80;;
3817;SDS011;1924;48.078;11.516;2023-07-29T16:41:18;36.83;;;0.80;;
3817;SDS011;1924;48.078;11.516;2023-07-29T16:43:45;36.87;;;0.80;;
3817;SDS011;1924;48.078;11.516;2023-07-29T16:48:37;36.90;;;0.80;;
3817;SDS011;1924;48.078;11.516;2023-07-29T16:51:04;36.90;;;0.80;;
3817;SDS011;1924;48.078;11.516;2023-07-29T16:53:33;36.87;;;0.80;;
3817;SDS011;1924;48.078;11.516;2023-07-29T16:56:01;36.70;;;0.80;;
3817;SDS011;1924;48.078;11.516;2023-07-29T16:58:28;36.73;;;0.90;;
3817;SDS011;1924;48.078;11.516;2023-07-29T17:00:55;36.47;;;0.80;;
3817;SDS011;1924;48.078;11.516;2023-07-29T17:03:21;36.43;;;0.80;;
3817;SDS011;1924;48.078;11.516;2023-07-29T17:05:48;36.43;;;0.80;;
3817;SDS011;1924;48.078;11.516;2023-07-29T17:08:18;36.43;;;0.80;;
3817;SDS011;1924;48.078;11.516;2023-07-29T17:10:44;36.37;;;0.80;;
3817;SDS011;1924;48.078;11.516;2023-07-29T17:13:12;36.50;;;0.80;;
3817;SDS011;1924;48.078;11.516;2023-07-29T17:15:40;36.27;;;0.80;;
3817;SDS011;1924;48.078;11.516;2023-07-29T17:18:07;36.40;;;0.80;;
3817;SDS011;1924;48.078;11.516;2023-07-29T17:20:33;36.17;;;0.80;;
3817;SDS011;1924;48.078;11.516;2023-07-29T17:23:00;36.33;;;0.80;;
3817;SDS011;1924;48.078;11.516;2023-07-29T17:25:27;36.17;;;0.80;;
3817;SDS011;1924;48.078;11.516;2023-07-29T17:27:56;36.23;;;0.80;;
3817;SDS011;1924;48.078;11.516;2023-07-29T17:30:24;36.17;;;0.80;;
3817;SDS011;1924;48.078;11.516;2023-07-29T17:32:53;35.87;;;0.80;;
3817;SDS011;1924;48.078;11.516;2023-07-29T17:35:19;36.13;;;0.80;;
3817;SDS011;1924;48.078;11.516;2023-07-29T17:37:46;35.97;;;0.80;;
3817;SDS011;1924;48.078;11.516;2023-07-29T17:40:13;36.07;;;0.80;;
3817;SDS011;1924;48.078;11.516;2023-07-29T17:42:40;36.07;;;0.80;;
3817;SDS011;1924;48.078;11.516;2023-07-29T17:45:07;36.00;;;0.80;;
3817;SDS011;1924;48.078;11.516;2023-07-29T17:47:36;36.07;;;0.80;;
3817;SDS011;1924;48.078;11.516;2023-07-29T17:50:02;36.03;;;0.80;;
3817;SDS011;1924;48.078;11.516;2023-07-29T17:52:29;36.10;;;0.80;;
3817;SDS011;1924;48.078;11.516;2023-07-29T17:54:56;36.07;;;0.80;;
3817;SDS011;1924;48.078;11.516;2023-07-29T17:57:23;36.00;;;0.80;;
3817;SDS011;1924;48.078;11.516;2023-07-29T17:59:51;35.87;;;0.80;;
3817;SDS011;1924;48.078;11.516;2023-07-29T18:02:18;35.83;;;0.80;;
3817;SDS011;1924;48.078;11.516;2023-07-29T18:04:46;35.83;;;0.80;;
3817;SDS011;1924;48.078;11.516;2023-07-29T18:07:13;35.83;;;0.80;;
3817;SDS011;1924;48.078;11.516;2023-07-29T18:09:40;35.93;;;0.80;;
3817;SDS011;1924;48.078;11.516;2023-07-29T18:12:07;36.00;;;0.80;;
3817;SDS011;1924;48.078;11.516;2023-07-29T18:14:33;35.93;;;0.80;;
3817;SDS011;1924;48.078;11.516;2023-07-29T18:17:01;35.83;;;0.80;;
3817;SDS011;1924;48.078;11.516;2023-07-29T18:19:28;35.97;;;0.80;;